Time;durP1;ratioP1;P1;durP2;ratioP2;P2;SDS_P1;SDS_P2;PMS_P1;PMS_P2;Temp;Humidity;BMP_temperature;BMP_pressure;BME280_temperature;BME280_humidity;BME280_pressure;Samples;Min_cycle;Max_cycle;Signal;HPM_P1;HPM_P2
2023/01/15 00:00:50;;;;;;;25.88;11.65;;;;;;;3.47;72.23;94319.22;5005220;28;20061;-81
2023/01/15 00:03:15;;;;;;;25.00;11.77;;;;;;;3.53;71.68;94324.25;5006549;28;20088;-81
2023/01/15 00:05:40;;;;;;;26.50;11.13;;;;;;;3.55;71.47;94326.66;5006404;28;20030;-81
2023/01/15 00:08:06;;;;;;;25.63;12.52;;;;;;;3.54;71.74;94325.88;5006659;28;20049;-81
2023/01/15 00:10:31;;;;;;;28.05;13.00;;;;;;;3.56;71.75;94321.13;5006569;28;20022;-82
2023/01/15 00:12:57;;;;;;;24.85;11.27;;;;;;;3.57;71.81;94317.44;5004994;28;20026;-81
2023/01/15 00:15:22;;;;;;;26.92;12.10;;;;;;;3.58;71.48;94320.84;5006322;28;20026;-81
2023/01/15 00:17:48;;;;;;;19.80;10.13;;;;;;;3.54;71.44;94320.59;5006328;28;20094;-82
2023/01/15 00:20:13;;;;;;;27.58;12.88;;;;;;;3.51;71.48;94313.19;5006188;28;20026;-81
2023/01/15 00:22:39;;;;;;;30.20;12.85;;;;;;;3.53;71.63;94320.84;5006163;28;20029;-81
2023/01/15 00:27:49;;;;;;;28.38;13.38;;;;;;;3.49;71.68;94323.19;5005987;28;20065;-81
2023/01/15 00:30:16;;;;;;;27.92;13.80;;;;;;;3.48;71.88;94331.34;5006074;28;20376;-81
2023/01/15 00:32:42;;;;;;;32.95;14.27;;;;;;;3.44;72.14;94319.72;5005937;28;20018;-80
2023/01/15 00:35:14;;;;;;;30.55;12.65;;;;;;;3.35;72.56;94322.84;5005987;28;20022;-80
2023/01/15 00:37:39;;;;;;;28.75;13.10;;;;;;;3.34;72.42;94326.56;5005735;28;20093;-80
2023/01/15 00:40:05;;;;;;;29.63;12.65;;;;;;;3.33;72.41;94326.81;5005991;28;20018;-81
2023/01/15 00:42:30;;;;;;;25.42;11.85;;;;;;;3.33;72.41;94324.94;5005751;28;20042;-80
2023/01/15 00:44:56;;;;;;;30.10;13.50;;;;;;;3.21;72.69;94321.72;5005891;28;20041;-80
2023/01/15 00:47:22;;;;;;;31.02;12.98;;;;;;;3.27;72.83;94320.72;5005742;28;20094;-81
2023/01/15 00:49:49;;;;;;;26.60;12.43;;;;;;;3.26;72.66;94318.31;5005703;28;20022;-80
2023/01/15 00:52:14;;;;;;;24.90;12.02;;;;;;;3.23;72.79;94319.63;5005607;28;20316;-81
2023/01/15 00:54:40;;;;;;;28.23;11.15;;;;;;;3.14;73.18;94310.63;5005602;28;20029;-80
2023/01/15 00:57:05;;;;;;;26.73;12.80;;;;;;;3.05;73.68;94312.16;5005682;28;20133;-81
2023/01/15 00:59:31;;;;;;;24.70;12.40;;;;;;;3.08;73.52;94319.56;5005710;28;20090;-81
2023/01/15 01:01:56;;;;;;;28.42;11.43;;;;;;;3.09;73.51;94311.38;5005321;28;20308;-80
2023/01/15 01:04:22;;;;;;;29.30;11.48;;;;;;;3.05;73.79;94315.56;5004310;28;20056;-81
2023/01/15 01:06:47;;;;;;;21.40;10.77;;;;;;;3.01;73.78;94317.94;5005286;28;20022;-81
2023/01/15 01:09:14;;;;;;;23.02;11.55;;;;;;;3.01;73.92;94317.94;5005495;28;20108;-81
2023/01/15 01:11:40;;;;;;;28.20;11.75;;;;;;;3.00;74.09;94318.19;5004354;28;20024;-81
2023/01/15 01:14:06;;;;;;;23.65;11.05;;;;;;;2.96;74.46;94323.16;5005549;28;20022;-81
2023/01/15 01:16:36;;;;;;;27.70;11.57;;;;;;;2.94;74.53;94309.47;5005360;28;20019;-82
2023/01/15 01:19:05;;;;;;;29.02;11.55;;;;;;;2.99;74.43;94312.13;5005239;28;20041;-81
2023/01/15 01:21:31;;;;;;;23.67;11.65;;;;;;;3.06;74.18;94314.53;5003982;28;20035;-81
2023/01/15 01:23:58;;;;;;;26.73;12.15;;;;;;;2.96;74.29;94315.25;5005087;28;20031;-81
2023/01/15 01:26:24;;;;;;;32.13;12.80;;;;;;;2.92;74.49;94311.56;5004981;28;20033;-81
2023/01/15 01:28:51;;;;;;;31.35;13.45;;;;;;;3.00;74.43;94308.44;5004987;28;20121;-81
2023/01/15 01:31:17;;;;;;;27.67;13.57;;;;;;;3.07;74.49;94307.44;5003766;28;20276;-81
2023/01/15 01:33:43;;;;;;;29.52;13.40;;;;;;;3.15;73.97;94296.41;5004931;28;20034;-82
2023/01/15 01:36:08;;;;;;;28.30;12.77;;;;;;;3.25;73.50;94304.38;5004580;28;20061;-81
2023/01/15 01:38:34;;;;;;;31.13;13.02;;;;;;;3.31;73.41;94286.75;5004957;28;20077;-81
2023/01/15 01:40:59;;;;;;;24.38;12.10;;;;;;;3.39;73.00;94297.56;5004829;28;20026;-82
2023/01/15 01:43:27;;;;;;;29.55;14.07;;;;;;;3.47;72.71;94295.50;5004504;28;20228;-81
2023/01/15 01:45:53;;;;;;;27.00;12.88;;;;;;;3.52;72.42;94295.53;5004804;28;20263;-81
2023/01/15 01:48:23;;;;;;;28.55;13.57;;;;;;;3.54;72.27;94301.31;5004679;28;20022;-81
2023/01/15 01:50:50;;;;;;;26.30;12.73;;;;;;;3.58;71.96;94299.75;5003486;28;20018;-82
2023/01/15 01:53:20;;;;;;;26.00;12.38;;;;;;;3.55;71.80;94301.06;5003284;28;20021;-82
2023/01/15 01:55:46;;;;;;;23.77;11.40;;;;;;;3.54;71.80;94303.97;5004217;28;20029;-83
2023/01/15 01:58:13;;;;;;;25.20;11.55;;;;;;;3.51;71.95;94294.72;5001494;28;20048;-83
2023/01/15 02:00:43;;;;;;;22.58;11.35;;;;;;;3.44;72.05;94299.47;5003518;28;20045;-82
2023/01/15 02:03:09;;;;;;;23.83;11.45;;;;;;;3.33;72.38;94293.34;5003925;28;20041;-83
2023/01/15 02:05:38;;;;;;;30.27;12.73;;;;;;;3.36;72.82;94298.09;5004289;28;20037;-83
2023/01/15 02:08:05;;;;;;;24.08;11.35;;;;;;;3.38;72.60;94292.59;5003365;28;20035;-83
2023/01/15 02:10:31;;;;;;;25.75;11.98;;;;;;;3.34;72.77;94287.03;5003107;28;20030;-83
2023/01/15 02:13:05;;;;;;;22.20;12.02;;;;;;;3.32;72.98;94283.88;5004218;28;20258;-82
2023/01/15 02:15:36;;;;;;;25.50;12.60;;;;;;;3.30;73.17;94277.28;5004017;28;20029;-82
2023/01/15 02:18:39;;;;;;;31.95;13.57;;;;;;;3.30;73.07;94293.88;5004292;28;20068;-82
2023/01/15 02:21:23;;;;;;;24.70;11.88;;;;;;;3.34;73.00;94286.25;5004321;28;20026;-82
2023/01/15 02:24:07;;;;;;;31.08;13.18;;;;;;;3.31;72.82;94278.84;5002788;28;20034;-82
2023/01/15 02:27:03;;;;;;;31.58;14.43;;;;;;;3.38;72.82;94285.47;5003864;28;20022;-82
2023/01/15 02:29:52;;;;;;;31.48;12.50;;;;;;;3.37;72.74;94288.34;5003989;28;20032;-83
2023/01/15 02:32:34;;;;;;;33.13;13.55;;;;;;;3.36;72.50;94290.19;5003810;28;20084;-82
2023/01/15 02:35:14;;;;;;;28.02;13.23;;;;;;;3.35;72.06;94282.53;5003765;28;20054;-82
2023/01/15 02:37:45;;;;;;;30.48;12.57;;;;;;;3.36;72.39;94282.28;5003638;28;20046;-82
2023/01/15 02:40:13;;;;;;;23.92;12.48;;;;;;;3.32;73.13;94275.97;5003817;28;20026;-83
2023/01/15 02:42:41;;;;;;;29.15;12.63;;;;;;;3.34;72.84;94279.13;5003644;28;20391;-83
2023/01/15 02:45:09;;;;;;;30.42;14.40;;;;;;;3.38;72.86;94264.38;5003867;28;20030;-83
2023/01/15 02:47:39;;;;;;;32.92;14.10;;;;;;;3.46;72.55;94276.28;5003783;28;20066;-83
2023/01/15 02:50:07;;;;;;;27.48;13.80;;;;;;;3.51;72.54;94272.88;5003849;28;20097;-83
2023/01/15 02:52:37;;;;;;;27.10;12.80;;;;;;;3.53;72.36;94270.75;5003631;28;20022;-82
2023/01/15 02:55:09;;;;;;;35.08;15.13;;;;;;;3.66;71.63;94254.44;5003796;28;20027;-83
2023/01/15 02:57:38;;;;;;;37.88;15.18;;;;;;;3.70;71.50;94255.50;5003744;28;20037;-83
2023/01/15 03:00:08;;;;;;;28.88;13.82;;;;;;;3.66;71.61;94265.00;5003690;28;20030;-83
2023/01/15 03:02:48;;;;;;;30.05;14.05;;;;;;;3.61;72.21;94268.41;5003878;28;20098;-82
2023/01/15 03:05:24;;;;;;;32.13;14.50;;;;;;;3.63;72.19;94270.78;5004294;28;20053;-82
2023/01/15 03:07:58;;;;;;;38.72;15.10;;;;;;;3.67;72.10;94271.06;5003999;28;20027;-82
2023/01/15 03:10:33;;;;;;;34.22;15.02;;;;;;;3.70;72.09;94271.34;5003719;28;20029;-82
2023/01/15 03:13:01;;;;;;;31.73;14.48;;;;;;;3.75;72.16;94268.72;5003813;28;20026;-83
2023/01/15 03:18:25;;;;;;;33.40;15.27;;;;;;;3.88;71.80;94277.97;5003573;28;20048;-82
2023/01/15 03:20:57;;;;;;;32.28;14.13;;;;;;;3.95;71.25;94283.81;5003297;28;20297;-82
2023/01/15 03:23:26;;;;;;;31.02;14.88;;;;;;;4.00;71.26;94278.53;5003431;28;20057;-81
2023/01/15 03:25:52;;;;;;;32.55;14.32;;;;;;;4.07;71.06;94278.28;5003549;28;20234;-81
2023/01/15 03:28:23;;;;;;;33.22;15.70;;;;;;;4.10;71.13;94269.84;5003472;28;20060;-80
2023/01/15 03:30:48;;;;;;;38.92;16.15;;;;;;;4.16;71.04;94275.91;5003378;28;20030;-80
2023/01/15 03:33:14;;;;;;;31.63;14.77;;;;;;;4.19;70.86;94275.38;5003195;28;20065;-80
2023/01/15 03:35:51;;;;;;;36.22;15.00;;;;;;;4.22;70.58;94283.56;5005752;28;20399;-82
2023/01/15 03:38:19;;;;;;;34.05;15.55;;;;;;;4.27;70.40;94284.63;5007194;28;20030;-82
2023/01/15 03:40:58;;;;;;;28.08;13.52;;;;;;;4.27;70.39;94280.13;5007124;28;20026;-82
2023/01/15 03:43:43;;;;;;;33.38;14.65;;;;;;;4.26;70.46;94277.78;5007048;28;20090;-81
2023/01/15 03:46:23;;;;;;;33.75;15.27;;;;;;;4.30;70.04;94270.94;5005832;28;20268;-82
2023/01/15 03:49:24;;;;;;;29.33;14.50;;;;;;;4.34;69.65;94285.19;5006992;28;20022;-82
2023/01/15 03:52:11;;;;;;;33.30;14.35;;;;;;;4.35;69.73;94289.38;5006823;28;20034;-82
2023/01/15 03:54:49;;;;;;;26.02;13.52;;;;;;;4.37;69.63;94289.91;5005558;28;20137;-82
2023/01/15 03:57:28;;;;;;;35.03;15.50;;;;;;;4.38;69.54;94284.38;5006811;28;20042;-82
2023/01/15 03:59:57;;;;;;;33.60;14.75;;;;;;;4.41;69.48;94277.78;5006875;28;20049;-82
2023/01/15 04:02:24;;;;;;;29.50;13.77;;;;;;;4.42;69.37;94287.28;5006540;28;20030;-82
2023/01/15 04:04:51;;;;;;;32.55;14.93;;;;;;;4.45;69.39;94281.47;5006738;28;20046;-82
2023/01/15 04:07:17;;;;;;;28.98;14.27;;;;;;;4.47;69.20;94289.91;5006604;28;20033;-82
2023/01/15 04:09:42;;;;;;;28.83;14.15;;;;;;;4.49;69.02;94287.03;5006442;28;20048;-82
2023/01/15 04:12:08;;;;;;;27.15;13.27;;;;;;;4.49;68.47;94282.53;5006571;28;20053;-81
2023/01/15 04:14:34;;;;;;;30.08;14.88;;;;;;;4.49;68.86;94271.97;5006613;28;20033;-81
2023/01/15 04:17:00;;;;;;;29.55;14.88;;;;;;;4.52;68.69;94273.28;5006352;28;20034;-82
2023/01/15 04:19:25;;;;;;;32.40;14.38;;;;;;;4.52;68.66;94276.75;5006479;28;20097;-82
2023/01/15 04:21:50;;;;;;;31.35;14.63;;;;;;;4.52;68.54;94275.91;5005106;28;20022;-82
2023/01/15 04:24:16;;;;;;;31.50;13.50;;;;;;;4.55;68.47;94286.75;5006138;28;20068;-83
2023/01/15 04:26:41;;;;;;;28.00;13.30;;;;;;;4.58;68.58;94278.31;5006374;28;20018;-83
2023/01/15 04:29:07;;;;;;;29.08;13.13;;;;;;;4.58;68.42;94280.16;5006182;28;20061;-83
2023/01/15 04:31:34;;;;;;;32.67;13.40;;;;;;;4.59;68.06;94281.75;5006230;28;20042;-82
2023/01/15 04:34:00;;;;;;;30.88;16.08;;;;;;;4.58;68.22;94285.44;5006041;28;20018;-82
2023/01/15 04:36:25;;;;;;;29.52;14.25;;;;;;;4.55;68.22;94292.03;5005946;28;20058;-82
2023/01/15 04:38:51;;;;;;;31.95;12.98;;;;;;;4.55;68.26;94292.03;5005877;28;20034;-82
2023/01/15 04:44:06;;;;;;;27.92;13.68;;;;;;;4.48;68.32;94291.53;5005784;28;20038;-82
2023/01/15 04:46:37;;;;;;;31.30;14.10;;;;;;;4.46;68.34;94284.91;5004863;28;20033;-83
2023/01/15 04:49:05;;;;;;;27.55;13.68;;;;;;;4.43;68.41;94294.13;5006054;28;20069;-82
2023/01/15 04:51:30;;;;;;;32.00;14.55;;;;;;;4.40;68.33;94292.03;5005834;28;20026;-82
2023/01/15 04:53:56;;;;;;;33.25;13.90;;;;;;;4.36;68.53;94288.34;5005669;28;20053;-81
2023/01/15 04:56:22;;;;;;;31.10;13.93;;;;;;;4.33;68.38;94289.66;5005816;28;20343;-81
2023/01/15 04:58:47;;;;;;;31.13;14.38;;;;;;;4.30;68.19;94289.41;5005631;28;20026;-81
2023/01/15 05:01:15;;;;;;;29.08;13.55;;;;;;;4.29;68.11;94287.81;5005626;28;20030;-81
2023/01/15 05:03:41;;;;;;;29.35;12.88;;;;;;;4.24;68.24;94291.22;5005486;28;20026;-81
2023/01/15 05:06:07;;;;;;;34.90;15.10;;;;;;;4.20;68.02;94296.22;5005417;28;20048;-81
2023/01/15 05:08:32;;;;;;;32.50;15.40;;;;;;;4.17;68.14;94291.50;5005484;28;20317;-83
2023/01/15 05:11:05;;;;;;;30.23;13.15;;;;;;;4.12;68.37;94288.84;5005505;28;20030;-83
2023/01/15 05:13:32;;;;;;;35.80;15.10;;;;;;;4.10;68.21;94283.03;5005337;28;20074;-81
2023/01/15 05:16:14;;;;;;;33.00;14.90;;;;;;;4.06;68.24;94294.38;5005004;28;20069;-82
2023/01/15 05:18:41;;;;;;;30.80;14.60;;;;;;;3.99;68.29;94282.22;5004053;28;20220;-82
2023/01/15 05:21:13;;;;;;;30.55;15.10;;;;;;;3.91;68.53;94290.66;5005113;28;20022;-82
2023/01/15 05:23:39;;;;;;;31.48;15.07;;;;;;;3.87;68.40;94286.13;5003626;28;20026;-83
2023/01/15 05:26:04;;;;;;;32.03;14.73;;;;;;;3.84;68.49;94289.31;5004104;28;20030;-82
2023/01/15 05:28:30;;;;;;;34.38;15.57;;;;;;;3.79;68.63;94285.59;5005167;28;20038;-82
2023/01/15 05:30:55;;;;;;;34.17;14.23;;;;;;;3.75;68.59;94289.81;5004915;28;20240;-82
2023/01/15 05:33:21;;;;;;;35.17;14.85;;;;;;;3.71;68.63;94290.59;5005027;28;20014;-82
2023/01/15 05:35:46;;;;;;;31.42;15.25;;;;;;;3.67;68.30;94289.53;5004663;28;20018;-82
2023/01/15 05:38:12;;;;;;;33.38;14.65;;;;;;;3.63;68.37;94286.63;5004633;28;20018;-82
2023/01/15 05:40:37;;;;;;;41.38;16.00;;;;;;;3.56;68.63;94293.94;5003603;28;20022;-83
2023/01/15 05:43:03;;;;;;;40.50;16.30;;;;;;;3.53;68.37;94286.56;5004892;28;20053;-82
2023/01/15 05:45:28;;;;;;;34.10;14.30;;;;;;;3.48;68.27;94294.44;5004767;28;20018;-83
2023/01/15 05:47:54;;;;;;;30.10;13.80;;;;;;;3.41;68.63;94284.94;5004639;28;20029;-83
2023/01/15 05:50:19;;;;;;;28.88;14.20;;;;;;;3.37;68.70;94289.13;5004552;28;20068;-82
2023/01/15 05:52:45;;;;;;;30.30;14.07;;;;;;;3.34;68.22;94292.31;5004492;28;20022;-82
2023/01/15 05:55:10;;;;;;;24.75;12.43;;;;;;;3.33;68.27;94298.59;5004446;28;20313;-82
2023/01/15 05:57:36;;;;;;;24.98;12.25;;;;;;;3.28;68.16;94288.06;5004374;28;20026;-82
2023/01/15 06:00:03;;;;;;;26.65;13.57;;;;;;;3.21;68.59;94296.16;5004597;28;20033;-82
2023/01/15 06:02:29;;;;;;;28.83;14.20;;;;;;;3.17;68.76;94312.75;5004273;28;20054;-81
2023/01/15 06:04:54;;;;;;;28.77;14.48;;;;;;;3.12;69.16;94302.19;5004322;28;20064;-81
2023/01/15 06:07:20;;;;;;;26.52;12.73;;;;;;;3.13;69.33;94301.13;5004413;28;20030;-81
2023/01/15 06:09:45;;;;;;;23.08;11.48;;;;;;;3.17;69.33;94304.84;5004163;28;20038;-80
2023/01/15 06:12:11;;;;;;;22.95;10.30;;;;;;;3.15;69.58;94301.69;5004305;28;20062;-81
2023/01/15 06:14:36;;;;;;;21.13;11.00;;;;;;;3.14;69.71;94305.38;5004353;28;20030;-80
2023/01/15 06:17:01;;;;;;;23.30;10.90;;;;;;;3.14;69.95;94308.00;5004427;28;20072;-81
2023/01/15 06:19:27;;;;;;;23.08;10.95;;;;;;;3.14;69.99;94302.75;5004064;28;20232;-81
2023/01/15 06:21:52;;;;;;;20.08;9.88;;;;;;;3.17;69.96;94292.47;5004082;28;20026;-81
2023/01/15 06:24:19;;;;;;;20.00;9.38;;;;;;;3.18;70.09;94301.19;5004048;28;20038;-81
2023/01/15 06:26:45;;;;;;;21.95;9.82;;;;;;;3.19;70.01;94294.84;5004124;28;20033;-81
2023/01/15 06:29:10;;;;;;;23.25;9.75;;;;;;;3.21;70.28;94292.75;5004076;28;20026;-81
2023/01/15 06:31:36;;;;;;;23.67;10.25;;;;;;;3.22;70.29;94296.97;5003945;28;20026;-81
2023/01/15 06:34:02;;;;;;;19.98;9.15;;;;;;;3.24;70.57;94297.53;5003066;28;20022;-81
2023/01/15 06:36:27;;;;;;;23.58;10.77;;;;;;;3.29;70.56;94292.25;5003995;28;20045;-81
2023/01/15 06:38:53;;;;;;;20.48;10.45;;;;;;;3.32;70.53;94296.25;5003826;28;20128;-81
2023/01/15 06:49:41;;;;;;;28.42;11.35;;;;;;;3.45;70.55;94293.13;5003798;28;20376;-80
2023/01/15 06:52:07;;;;;;;26.98;13.23;;;;;;;3.47;70.84;94298.16;5003773;28;20022;-80
2023/01/15 06:54:33;;;;;;;27.77;12.32;;;;;;;3.53;70.71;94297.13;5003768;28;20029;-80
2023/01/15 06:56:59;;;;;;;25.50;12.40;;;;;;;3.54;70.69;94303.97;5003500;28;20224;-80
2023/01/15 06:59:24;;;;;;;25.33;12.23;;;;;;;3.57;70.88;94301.63;5003531;28;20038;-79
2023/01/15 07:01:49;;;;;;;24.88;11.48;;;;;;;3.61;70.74;94304.53;5003176;28;20307;-79
2023/01/15 07:04:15;;;;;;;25.85;13.25;;;;;;;3.66;70.94;94301.13;5001970;28;20117;-79
2023/01/15 07:06:41;;;;;;;26.65;12.60;;;;;;;3.69;70.69;94287.44;5002489;28;20105;-79
2023/01/15 07:09:06;;;;;;;31.08;13.60;;;;;;;3.74;70.11;94292.69;5002652;28;20029;-79
2023/01/15 07:11:32;;;;;;;36.35;14.27;;;;;;;3.81;70.08;94295.91;5003495;28;20220;-79
2023/01/15 07:14:06;;;;;;;39.42;17.38;;;;;;;3.84;70.18;94297.22;5003061;28;20018;-81
2023/01/15 07:16:35;;;;;;;33.83;15.50;;;;;;;3.90;70.05;94293.53;5003339;28;20045;-82
2023/01/15 07:19:02;;;;;;;33.67;15.68;;;;;;;3.97;70.19;94302.00;5003242;28;20061;-81
2023/01/15 07:21:28;;;;;;;38.60;16.60;;;;;;;3.99;70.12;94305.97;5003335;28;20057;-81
2023/01/15 07:23:57;;;;;;;47.05;19.75;;;;;;;4.02;70.43;94299.38;5002047;28;20074;-81
2023/01/15 07:26:22;;;;;;;43.85;18.55;;;;;;;4.10;69.95;94296.22;5003356;28;20026;-80
2023/01/15 07:28:48;;;;;;;42.85;17.90;;;;;;;4.23;69.29;94305.47;5003190;28;20197;-79
2023/01/15 07:31:13;;;;;;;43.28;16.67;;;;;;;4.27;68.97;94311.03;5003171;28;20030;-80
2023/01/15 07:33:38;;;;;;;41.22;18.92;;;;;;;4.31;69.17;94306.81;5003246;28;20025;-82
2023/01/15 07:36:05;;;;;;;37.17;19.65;;;;;;;4.36;68.86;94312.09;5003302;28;20378;-81
2023/01/15 07:38:30;;;;;;;40.70;18.10;;;;;;;4.43;68.21;94315.25;5003417;28;20068;-80
2023/01/15 07:52:00;;;;;;;29.05;11.55;;;;;;;4.40;66.17;94313.94;5003232;28;20831;-81
2023/01/15 07:54:28;;;;;;;23.20;10.80;;;;;;;4.40;65.67;94303.38;5003808;28;20458;-81
2023/01/15 07:56:54;;;;;;;19.02;10.52;;;;;;;4.33;65.73;94304.69;5003299;28;20174;-81
2023/01/15 07:59:19;;;;;;;20.10;9.70;;;;;;;4.27;66.33;94303.09;5003601;28;20022;-81
2023/01/15 08:01:45;;;;;;;23.35;10.02;;;;;;;4.28;66.48;94307.34;5003561;28;20029;-81
2023/01/15 08:04:10;;;;;;;24.17;10.73;;;;;;;4.29;66.53;94303.63;5003512;28;20033;-80
2023/01/15 08:06:36;;;;;;;22.08;10.23;;;;;;;4.34;66.27;94306.28;5003544;28;20197;-80
2023/01/15 08:09:03;;;;;;;27.92;12.52;;;;;;;4.39;66.13;94303.63;5002101;28;20069;-80
2023/01/15 08:16:56;;;;;;;17.48;9.50;;;;;;;4.53;65.21;94303.91;5002799;28;20213;-82
2023/01/15 08:19:23;;;;;;;15.20;7.50;;;;;;;4.53;63.60;94309.97;5002702;28;20057;-81
2023/01/15 08:21:49;;;;;;;15.90;8.02;;;;;;;4.49;63.29;94310.78;5004735;28;20072;-80
2023/01/15 08:24:15;;;;;;;22.42;8.98;;;;;;;4.49;63.73;94316.84;5006153;28;20030;-80
2023/01/15 08:26:40;;;;;;;19.58;9.07;;;;;;;4.56;63.63;94319.22;5006170;28;20088;-79
2023/01/15 08:29:06;;;;;;;14.85;7.65;;;;;;;4.61;63.43;94320.03;5006107;28;20026;-82
2023/01/15 08:31:31;;;;;;;18.02;8.65;;;;;;;4.67;63.35;94330.59;5006037;28;20023;-80
2023/01/15 08:33:57;;;;;;;25.60;9.57;;;;;;;4.72;63.02;94318.19;5004889;28;20026;-80
2023/01/15 08:36:22;;;;;;;18.38;7.93;;;;;;;4.69;62.90;94329.25;5005719;28;20066;-80
2023/01/15 08:38:49;;;;;;;19.77;8.90;;;;;;;4.74;62.91;94325.81;5004606;28;20105;-81
2023/01/15 08:41:15;;;;;;;20.05;8.90;;;;;;;4.77;62.43;94325.31;5005701;28;20093;-81
2023/01/15 08:43:40;;;;;;;23.17;9.75;;;;;;;4.83;62.00;94321.59;5005721;28;20042;-81
2023/01/15 08:46:08;;;;;;;17.95;9.38;;;;;;;4.86;62.15;94320.28;5005585;28;20069;-82
2023/01/15 08:48:34;;;;;;;26.70;11.57;;;;;;;4.93;62.30;94321.59;5005929;28;20089;-85
2023/01/15 08:51:05;;;;;;;24.70;10.57;;;;;;;4.99;62.38;94317.09;5005775;28;20022;-87
2023/01/15 08:53:31;;;;;;;27.75;12.25;;;;;;;5.03;62.79;94312.88;5006098;28;20018;-88
2023/01/15 08:55:57;;;;;;;26.42;10.52;;;;;;;5.10;62.75;94315.25;5005775;28;20116;-84
2023/01/15 08:58:22;;;;;;;24.73;9.73;;;;;;;5.17;61.88;94308.63;5005330;28;20025;-81
2023/01/15 09:00:48;;;;;;;16.10;8.30;;;;;;;5.21;61.54;94319.44;5005425;28;20308;-81
2023/01/15 09:03:14;;;;;;;16.33;8.07;;;;;;;5.23;60.55;94312.84;5005426;28;20048;-81
2023/01/15 09:05:40;;;;;;;16.45;8.23;;;;;;;5.30;59.76;94315.19;5005131;28;20018;-81
2023/01/15 09:08:06;;;;;;;20.90;9.63;;;;;;;5.31;60.16;94319.44;5004117;28;20018;-85
2023/01/15 09:10:32;;;;;;;16.33;8.30;;;;;;;5.34;60.33;94315.44;5005522;28;20251;-84
2023/01/15 09:13:01;;;;;;;23.27;8.50;;;;;;;5.32;59.96;94310.44;5004562;28;20018;-84
2023/01/15 09:15:32;;;;;;;18.30;8.60;;;;;;;5.29;60.22;94310.97;5003778;28;20026;-84
2023/01/15 09:17:58;;;;;;;16.42;7.93;;;;;;;5.29;60.37;94315.44;5004893;28;20092;-84
2023/01/15 09:20:23;;;;;;;25.23;9.45;;;;;;;5.30;60.60;94312.53;5004794;28;20317;-84
2023/01/15 09:22:51;;;;;;;23.55;9.82;;;;;;;5.33;60.51;94300.63;5004884;28;20098;-84
2023/01/15 09:25:18;;;;;;;18.65;8.95;;;;;;;5.38;60.32;94305.94;5003752;28;20026;-84
2023/01/15 09:27:45;;;;;;;21.92;9.40;;;;;;;5.43;60.48;94301.41;5003539;28;20170;-84
2023/01/15 09:30:17;;;;;;;23.17;9.45;;;;;;;5.51;60.53;94293.97;5004768;28;20022;-85
2023/01/15 09:32:43;;;;;;;23.17;10.40;;;;;;;5.54;60.57;94291.59;5004418;28;20223;-85
2023/01/15 09:35:08;;;;;;;18.02;10.60;;;;;;;5.63;60.58;94289.94;5003329;28;20022;-83
2023/01/15 09:37:34;;;;;;;23.83;11.73;;;;;;;5.77;60.84;94281.44;5003157;28;20404;-84
2023/01/15 09:40:01;;;;;;;22.48;11.40;;;;;;;5.92;60.91;94280.56;5003218;28;20245;-83
2023/01/15 09:42:43;;;;;;;20.50;10.57;;;;;;;6.12;60.30;94272.53;5004294;28;20037;-83
2023/01/15 09:45:12;;;;;;;19.77;9.93;;;;;;;6.29;59.89;94268.72;5003022;28;20030;-83
2023/01/15 09:47:50;;;;;;;20.88;10.95;;;;;;;6.47;59.19;94270.72;5004396;28;20117;-83
2023/01/15 09:50:33;;;;;;;23.08;11.35;;;;;;;6.63;58.93;94263.44;5004352;28;20224;-83
2023/01/15 09:53:09;;;;;;;25.08;12.10;;;;;;;6.82;57.81;94256.38;5004241;28;20093;-82
2023/01/15 09:55:43;;;;;;;26.17;12.02;;;;;;;6.93;57.27;94249.13;5004550;28;20276;-83
2023/01/15 09:58:13;;;;;;;26.90;11.63;;;;;;;7.02;57.00;94249.28;5004222;28;20054;-80
2023/01/15 10:00:49;;;;;;;25.25;12.95;;;;;;;7.10;56.68;94239.94;5004463;28;20034;-82
2023/01/15 10:03:33;;;;;;;28.02;13.60;;;;;;;7.22;57.01;94237.69;5004129;28;20033;-80
2023/01/15 10:06:23;;;;;;;25.38;13.65;;;;;;;7.33;57.02;94225.13;5004057;28;20027;-81
2023/01/15 10:08:50;;;;;;;36.13;13.77;;;;;;;7.44;56.75;94222.06;5003805;28;20065;-81
2023/01/15 10:11:16;;;;;;;28.92;12.70;;;;;;;7.60;55.74;94216.56;5003567;28;20897;-81
2023/01/15 10:13:55;;;;;;;29.65;14.38;;;;;;;7.71;55.43;94215.34;5003971;28;20371;-80
2023/01/15 10:16:27;;;;;;;29.98;13.95;;;;;;;7.79;55.38;94209.41;5002522;28;20026;-82
2023/01/15 10:18:54;;;;;;;;;;;;;;;7.90;54.92;94203.97;5003898;28;20026;-81
2023/01/15 10:21:31;;;;;;;25.63;13.13;;;;;;;7.92;55.21;94196.50;5003519;28;19973;-82
2023/01/15 10:24:35;;;;;;;34.78;16.40;;;;;;;7.99;54.85;94197.72;5003521;28;20109;-81
2023/01/15 10:27:14;;;;;;;27.77;14.00;;;;;;;7.74;54.29;94190.91;4970842;28;20034;-82
2023/01/15 10:29:48;;;;;;;29.63;14.38;;;;;;;7.83;54.65;94196.34;5003657;28;20068;-82
2023/01/15 10:32:44;;;;;;;32.65;13.65;;;;;;;7.94;54.37;94187.19;5003554;28;20138;-82
2023/01/15 10:35:25;;;;;;;26.23;13.40;;;;;;;7.97;54.26;94177.84;5003675;28;20029;-82
2023/01/15 10:38:20;;;;;;;27.30;13.55;;;;;;;8.03;53.90;94185.44;4997968;28;20149;-82
2023/01/15 10:41:16;;;;;;;29.08;13.30;;;;;;;8.07;53.73;94180.34;5003748;28;20077;-82
2023/01/15 10:43:52;;;;;;;24.48;11.13;;;;;;;8.10;53.80;94176.31;5003095;28;20018;-81
2023/01/15 10:46:22;;;;;;;25.98;13.52;;;;;;;8.10;53.43;94161.19;5003310;28;20018;-81
2023/01/15 10:48:55;;;;;;;25.33;13.25;;;;;;;8.09;53.26;94164.91;5002175;28;20049;-82
2023/01/15 10:51:40;;;;;;;28.70;12.55;;;;;;;8.11;53.02;94162.75;5003557;28;20317;-78
2023/01/15 10:54:31;;;;;;;26.85;13.98;;;;;;;8.10;53.60;94155.06;5003442;28;20224;-81
2023/01/15 10:57:10;;;;;;;27.30;13.68;;;;;;;8.11;53.52;94146.84;5002020;28;20105;-82
2023/01/15 10:59:42;;;;;;;31.80;14.70;;;;;;;8.08;53.96;94142.13;5003272;28;20252;-80
2023/01/15 11:02:22;;;;;;;32.03;14.82;;;;;;;8.08;54.36;94146.63;5003216;28;20025;-80
2023/01/15 11:04:48;;;;;;;31.60;13.43;;;;;;;8.07;54.04;94137.88;5003205;28;20026;-84
2023/01/15 11:07:15;;;;;;;31.65;13.40;;;;;;;8.05;54.18;94132.06;5003142;28;20073;-81
2023/01/15 11:09:41;;;;;;;31.45;14.75;;;;;;;8.00;54.26;94127.63;5003324;28;20018;-82
2023/01/15 11:20:42;;;;;;;36.33;14.50;;;;;;;7.71;54.62;94117.19;5003170;28;20308;-82
2023/01/15 11:23:10;;;;;;;33.88;13.82;;;;;;;7.61;55.19;94114.66;5002907;28;20030;-82
2023/01/15 11:25:38;;;;;;;30.98;12.95;;;;;;;7.56;55.46;94112.88;5003137;28;20061;-83
2023/01/15 11:28:07;;;;;;;23.98;11.52;;;;;;;7.46;55.56;94109.59;5003075;28;20047;-82
2023/01/15 11:30:36;;;;;;;23.77;11.82;;;;;;;7.46;55.86;94104.28;5003163;28;20022;-81
2023/01/15 11:33:05;;;;;;;30.23;13.40;;;;;;;7.44;56.27;94105.34;5001827;28;20018;-81
2023/01/15 11:35:32;;;;;;;27.20;12.85;;;;;;;7.43;56.37;94097.72;5003034;28;20023;-82
2023/01/15 11:38:03;;;;;;;21.17;11.27;;;;;;;7.43;56.20;94100.38;5001673;28;20253;-86
2023/01/15 11:40:28;;;;;;;22.85;11.80;;;;;;;7.41;56.12;94094.56;5001986;28;20293;-82
2023/01/15 11:51:32;;;;;;;23.15;11.27;;;;;;;7.35;56.94;94088.53;5003072;28;20029;-84
2023/01/15 11:54:03;;;;;;;25.13;10.80;;;;;;;7.39;56.88;94078.94;5002817;28;20020;-85
2023/01/15 11:56:30;;;;;;;23.40;10.98;;;;;;;7.42;57.09;94065.06;5005032;28;20264;-82
2023/01/15 11:59:00;;;;;;;21.42;11.40;;;;;;;7.48;56.79;94070.31;5005480;28;20030;-85
2023/01/15 12:01:34;;;;;;;26.05;11.25;;;;;;;7.50;56.87;94068.94;5006556;28;20093;-84
2023/01/15 12:04:02;;;;;;;22.17;10.02;;;;;;;7.55;56.42;94068.88;5006362;28;20081;-85
2023/01/15 12:06:30;;;;;;;22.35;10.60;;;;;;;7.55;56.31;94068.06;5006313;28;20026;-85
2023/01/15 12:09:26;;;;;;;22.30;10.68;;;;;;;7.61;56.11;94066.91;5006535;28;20022;-85
2023/01/15 12:11:52;;;;;;;19.00;10.70;;;;;;;7.66;56.13;94056.25;5005195;28;20029;-80
2023/01/15 12:14:46;;;;;;;30.98;10.02;;;;;;;7.73;56.19;94056.66;5006320;28;20030;-83
2023/01/15 12:17:27;;;;;;;18.55;9.95;;;;;;;7.77;55.69;94052.34;4988260;28;20232;-87
2023/01/15 12:20:05;;;;;;;16.42;9.20;;;;;;;7.84;55.36;94058.06;5006265;28;20018;-80
2023/01/15 12:23:03;;;;;;;18.73;9.38;;;;;;;7.89;55.68;94051.88;5005642;28;20033;-79
2023/01/15 12:25:29;;;;;;;20.75;10.65;;;;;;;7.97;55.70;94047.78;5004981;28;20023;-79
2023/01/15 12:28:06;;;;;;;17.40;8.90;;;;;;;8.08;55.67;94045.72;5006203;28;20058;-80